sensor_id;sensor_type;location;lat;lon;timestamp;pressure;altitude;pressure_sealevel;temperature;humidity
31357;BME280;60001;48.404;11.738;2024-01-30T00:01:23;97685.66;;;2.00;76.66
31357;BME280;60001;48.404;11.738;2024-01-30T00:02:54;97685.81;;;1.99;76.47
31357;BME280;60001;48.404;11.738;2024-01-30T00:04:26;97677.03;;;2.00;75.96
31357;BME280;60001;48.404;11.738;2024-01-30T00:05:57;97683.22;;;1.99;75.39
31357;BME280;60001;48.404;11.738;2024-01-30T00:07:29;97673.13;;;1.87;75.67
31357;BME280;60001;48.404;11.738;2024-01-30T00:09:01;97683.88;;;1.92;76.23
31357;BME280;60001;48.404;11.738;2024-01-30T00:10:33;97691.38;;;1.96;75.52
31357;BME280;60001;48.404;11.738;2024-01-30T00:12:05;97685.84;;;1.90;75.17
31357;BME280;60001;48.404;11.738;2024-01-30T00:13:37;97682.06;;;1.93;75.56
31357;BME280;60001;48.404;11.738;2024-01-30T00:15:08;97681.25;;;1.92;75.89
31357;BME280;60001;48.404;11.738;2024-01-30T00:16:40;97675.25;;;1.92;76.47
31357;BME280;60001;48.404;11.738;2024-01-30T00:18:11;97680.13;;;1.87;76.28
31357;BME280;60001;48.404;11.738;2024-01-30T00:19:43;97681.59;;;1.89;76.03
31357;BME280;60001;48.404;11.738;2024-01-30T00:21:13;97681.09;;;1.86;76.28
31357;BME280;60001;48.404;11.738;2024-01-30T00:22:45;97685.66;;;1.76;75.90
31357;BME280;60001;48.404;11.738;2024-01-30T00:24:17;97689.25;;;1.75;76.33
31357;BME280;60001;48.404;11.738;2024-01-30T00:25:50;97692.66;;;1.75;76.29
31357;BME280;60001;48.404;11.738;2024-01-30T00:27:21;97689.41;;;1.81;76.54
31357;BME280;60001;48.404;11.738;2024-01-30T00:28:53;97697.53;;;1.86;75.81
31357;BME280;60001;48.404;11.738;2024-01-30T00:30:23;97690.88;;;1.84;75.49
31357;BME280;60001;48.404;11.738;2024-01-30T00:31:55;97683.38;;;1.73;75.13
31357;BME280;60001;48.404;11.738;2024-01-30T00:33:26;97675.56;;;1.64;75.57
31357;BME280;60001;48.404;11.738;2024-01-30T00:34:58;97689.72;;;1.62;75.63
31357;BME280;60001;48.404;11.738;2024-01-30T00:36:29;97676.03;;;1.52;75.96
31357;BME280;60001;48.404;11.738;2024-01-30T00:38:01;97687.47;;;1.75;74.88
31357;BME280;60001;48.404;11.738;2024-01-30T00:39:33;97693.47;;;1.76;75.38
31357;BME280;60001;48.404;11.738;2024-01-30T00:41:05;97701.41;;;1.66;74.78
31357;BME280;60001;48.404;11.738;2024-01-30T00:42:38;97698.47;;;1.53;75.36
31357;BME280;60001;48.404;11.738;2024-01-30T00:44:08;97695.03;;;1.44;75.52
31357;BME280;60001;48.404;11.738;2024-01-30T00:45:40;97697.00;;;1.34;76.13
31357;BME280;60001;48.404;11.738;2024-01-30T00:47:11;97696.81;;;1.27;75.63
31357;BME280;60001;48.404;11.738;2024-01-30T00:48:43;97700.22;;;1.28;76.45
31357;BME280;60001;48.404;11.738;2024-01-30T00:50:14;97699.56;;;1.26;76.21
31357;BME280;60001;48.404;11.738;2024-01-30T00:51:46;97707.13;;;1.11;76.45
31357;BME280;60001;48.404;11.738;2024-01-30T00:53:18;97703.09;;;1.17;76.35
31357;BME280;60001;48.404;11.738;2024-01-30T00:54:50;97698.72;;;1.17;76.49
31357;BME280;60001;48.404;11.738;2024-01-30T00:56:22;97693.19;;;1.12;76.43
31357;BME280;60001;48.404;11.738;2024-01-30T00:57:53;97697.19;;;0.98;76.86
31357;BME280;60001;48.404;11.738;2024-01-30T00:59:25;97695.53;;;0.97;77.28
31357;BME280;60001;48.404;11.738;2024-01-30T01:00:56;97694.78;;;1.05;77.61
31357;BME280;60001;48.404;11.738;2024-01-30T01:02:28;97693.00;;;1.05;76.71
31357;BME280;60001;48.404;11.738;2024-01-30T01:03:59;97702.25;;;1.00;77.07
31357;BME280;60001;48.404;11.738;2024-01-30T01:05:31;97700.44;;;1.00;77.07
31357;BME280;60001;48.404;11.738;2024-01-30T01:07:02;97699.44;;;0.93;77.79
31357;BME280;60001;48.404;11.738;2024-01-30T01:08:34;97701.53;;;0.90;77.61
31357;BME280;60001;48.404;11.738;2024-01-30T01:10:07;97699.25;;;0.87;77.45
31357;BME280;60001;48.404;11.738;2024-01-30T01:11:39;97693.50;;;0.75;78.66
31357;BME280;60001;48.404;11.738;2024-01-30T01:13:10;97695.06;;;0.94;77.55
31357;BME280;60001;48.404;11.738;2024-01-30T01:14:41;97695.31;;;0.82;78.77
31357;BME280;60001;48.404;11.738;2024-01-30T01:16:12;97684.09;;;0.74;78.88
31357;BME280;60001;48.404;11.738;2024-01-30T01:17:44;97696.66;;;0.87;78.77
31357;BME280;60001;48.404;11.738;2024-01-30T01:19:15;97694.38;;;0.84;78.83
31357;BME280;60001;48.404;11.738;2024-01-30T01:20:47;97686.88;;;0.80;78.62
31357;BME280;60001;48.404;11.738;2024-01-30T01:22:17;97697.28;;;0.80;79.01
31357;BME280;60001;48.404;11.738;2024-01-30T01:23:50;97693.41;;;0.85;78.27
31357;BME280;60001;48.404;11.738;2024-01-30T01:25:22;97693.72;;;0.90;78.88
31357;BME280;60001;48.404;11.738;2024-01-30T01:26:54;97683.13;;;0.83;78.68
31357;BME280;60001;48.404;11.738;2024-01-30T01:28:24;97689.69;;;0.95;77.84
31357;BME280;60001;48.404;11.738;2024-01-30T01:29:56;97686.91;;;0.89;78.78
31357;BME280;60001;48.404;11.738;2024-01-30T01:31:27;97683.19;;;0.91;78.55
31357;BME280;60001;48.404;11.738;2024-01-30T01:33:00;97691.13;;;0.90;79.70
31357;BME280;60001;48.404;11.738;2024-01-30T01:34:32;97685.28;;;0.88;79.13
31357;BME280;60001;48.404;11.738;2024-01-30T01:36:04;97688.84;;;0.87;80.00
31357;BME280;60001;48.404;11.738;2024-01-30T01:37:37;97685.44;;;0.86;79.26
31357;BME280;60001;48.404;11.738;2024-01-30T01:39:08;97690.47;;;0.88;80.27
31357;BME280;60001;48.404;11.738;2024-01-30T01:40:41;97682.38;;;0.91;79.64
31357;BME280;60001;48.404;11.738;2024-01-30T01:42:14;97685.31;;;0.96;79.93
31357;BME280;60001;48.404;11.738;2024-01-30T01:43:45;97695.53;;;0.97;79.44
31357;BME280;60001;48.404;11.738;2024-01-30T01:45:17;97682.38;;;0.91;78.73
31357;BME280;60001;48.404;11.738;2024-01-30T01:46:47;97686.28;;;0.95;78.94
31357;BME280;60001;48.404;11.738;2024-01-30T01:48:20;97688.25;;;0.93;78.23
31357;BME280;60001;48.404;11.738;2024-01-30T01:49:51;97694.09;;;0.95;77.63
31357;BME280;60001;48.404;11.738;2024-01-30T01:51:27;97689.03;;;0.85;76.83
31357;BME280;60001;48.404;11.738;2024-01-30T01:52:58;97694.03;;;0.78;77.24
31357;BME280;60001;48.404;11.738;2024-01-30T01:54:30;97693.03;;;0.71;78.26
31357;BME280;60001;48.404;11.738;2024-01-30T01:56:04;97682.91;;;0.68;77.78
31357;BME280;60001;48.404;11.738;2024-01-30T01:57:36;97686.19;;;0.70;77.56
31357;BME280;60001;48.404;11.738;2024-01-30T01:59:08;97681.41;;;0.58;78.09
31357;BME280;60001;48.404;11.738;2024-01-30T02:00:40;97683.84;;;0.59;78.82
31357;BME280;60001;48.404;11.738;2024-01-30T02:02:13;97686.28;;;0.61;78.48
31357;BME280;60001;48.404;11.738;2024-01-30T02:03:46;97679.31;;;0.61;79.24
31357;BME280;60001;48.404;11.738;2024-01-30T02:05:18;97682.63;;;0.71;79.03
31357;BME280;60001;48.404;11.738;2024-01-30T02:06:51;97683.09;;;0.75;78.53
31357;BME280;60001;48.404;11.738;2024-01-30T02:08:23;97691.72;;;0.75;78.47
31357;BME280;60001;48.404;11.738;2024-01-30T02:09:55;97694.81;;;0.71;79.22
31357;BME280;60001;48.404;11.738;2024-01-30T02:11:31;97687.47;;;0.66;79.29
31357;BME280;60001;48.404;11.738;2024-01-30T02:13:03;97681.31;;;0.75;78.97
31357;BME280;60001;48.404;11.738;2024-01-30T02:14:44;97685.25;;;0.79;79.18
31357;BME280;60001;48.404;11.738;2024-01-30T02:16:16;97650.22;;;0.58;79.52
31357;BME280;60001;48.404;11.738;2024-01-30T02:17:47;97686.31;;;0.69;79.50
31357;BME280;60001;48.404;11.738;2024-01-30T02:19:19;97693.13;;;0.62;80.28
31357;BME280;60001;48.404;11.738;2024-01-30T02:20:54;97691.41;;;0.70;80.28
31357;BME280;60001;48.404;11.738;2024-01-30T02:22:28;97690.94;;;0.83;79.65
31357;BME280;60001;48.404;11.738;2024-01-30T02:24:03;97693.09;;;0.88;79.98
31357;BME280;60001;48.404;11.738;2024-01-30T02:25:38;97689.50;;;0.89;79.76
31357;BME280;60001;48.404;11.738;2024-01-30T02:27:09;97693.28;;;0.94;78.86
31357;BME280;60001;48.404;11.738;2024-01-30T02:28:41;97694.72;;;0.89;79.08
31357;BME280;60001;48.404;11.738;2024-01-30T02:30:13;97697.66;;;0.94;78.96
31357;BME280;60001;48.404;11.738;2024-01-30T02:31:44;97691.09;;;0.81;78.01
31357;BME280;60001;48.404;11.738;2024-01-30T02:33:16;97681.94;;;0.69;78.04
31357;BME280;60001;48.404;11.738;2024-01-30T02:34:47;97683.88;;;0.67;78.05
31357;BME280;60001;48.404;11.738;2024-01-30T02:36:19;97686.13;;;0.62;78.24
31357;BME280;60001;48.404;11.738;2024-01-30T02:37:51;97682.84;;;0.52;78.22
31357;BME280;60001;48.404;11.738;2024-01-30T02:39:23;97684.59;;;0.43;78.67
31357;BME280;60001;48.404;11.738;2024-01-30T02:40:54;97679.44;;;0.51;80.53
31357;BME280;60001;48.404;11.738;2024-01-30T02:42:25;97679.25;;;0.53;80.45
31357;BME280;60001;48.404;11.738;2024-01-30T02:43:56;97683.66;;;0.52;80.27
31357;BME280;60001;48.404;11.738;2024-01-30T02:45:29;97681.56;;;0.56;80.22
31357;BME280;60001;48.404;11.738;2024-01-30T02:47:00;97680.28;;;0.60;80.32
31357;BME280;60001;48.404;11.738;2024-01-30T02:48:32;97677.38;;;0.63;81.20
31357;BME280;60001;48.404;11.738;2024-01-30T02:50:03;97680.63;;;0.65;80.89
31357;BME280;60001;48.404;11.738;2024-01-30T02:51:36;97672.03;;;0.65;80.89
31357;BME280;60001;48.404;11.738;2024-01-30T02:53:08;97676.09;;;0.67;80.81
31357;BME280;60001;48.404;11.738;2024-01-30T02:54:40;97681.44;;;0.66;80.49
31357;BME280;60001;48.404;11.738;2024-01-30T02:56:11;97676.09;;;0.67;80.72
31357;BME280;60001;48.404;11.738;2024-01-30T02:57:44;97673.09;;;0.54;80.36
31357;BME280;60001;48.404;11.738;2024-01-30T02:59:15;97662.41;;;0.57;80.65
31357;BME280;60001;48.404;11.738;2024-01-30T03:00:47;97663.88;;;0.60;80.60
31357;BME280;60001;48.404;11.738;2024-01-30T03:02:18;97661.72;;;0.55;81.20
31357;BME280;60001;48.404;11.738;2024-01-30T03:03:50;97665.31;;;0.54;81.12
31357;BME280;60001;48.404;11.738;2024-01-30T03:05:20;97667.75;;;0.55;80.72
31357;BME280;60001;48.404;11.738;2024-01-30T03:06:52;97652.63;;;0.51;80.78
31357;BME280;60001;48.404;11.738;2024-01-30T03:08:26;97655.78;;;0.63;80.09
31357;BME280;60001;48.404;11.738;2024-01-30T03:09:56;97668.72;;;0.54;80.13
31357;BME280;60001;48.404;11.738;2024-01-30T03:11:29;97664.50;;;0.53;80.12
31357;BME280;60001;48.404;11.738;2024-01-30T03:13:00;97661.19;;;0.43;79.89
31357;BME280;60001;48.404;11.738;2024-01-30T03:14:32;97662.31;;;0.41;79.76
31357;BME280;60001;48.404;11.738;2024-01-30T03:16:03;97656.66;;;0.45;79.25
31357;BME280;60001;48.404;11.738;2024-01-30T03:17:35;97655.19;;;0.43;80.00
31357;BME280;60001;48.404;11.738;2024-01-30T03:19:07;97647.22;;;0.44;79.75
31357;BME280;60001;48.404;11.738;2024-01-30T03:20:39;97649.31;;;0.41;80.18
31357;BME280;60001;48.404;11.738;2024-01-30T03:22:10;97644.72;;;0.35;80.00
31357;BME280;60001;48.404;11.738;2024-01-30T03:23:43;97647.69;;;0.40;80.39
31357;BME280;60001;48.404;11.738;2024-01-30T03:25:14;97656.28;;;0.40;79.93
31357;BME280;60001;48.404;11.738;2024-01-30T03:26:46;97655.47;;;0.40;80.50
31357;BME280;60001;48.404;11.738;2024-01-30T03:28:17;97654.19;;;0.36;79.47
31357;BME280;60001;48.404;11.738;2024-01-30T03:29:48;97651.81;;;0.50;79.88
31357;BME280;60001;48.404;11.738;2024-01-30T03:31:19;97649.50;;;0.47;78.97
31357;BME280;60001;48.404;11.738;2024-01-30T03:32:51;97652.84;;;0.32;78.78
31357;BME280;60001;48.404;11.738;2024-01-30T03:34:22;97651.72;;;0.34;79.41
31357;BME280;60001;48.404;11.738;2024-01-30T03:35:54;97653.00;;;0.30;79.02
31357;BME280;60001;48.404;11.738;2024-01-30T03:37:24;97653.97;;;0.29;78.99
31357;BME280;60001;48.404;11.738;2024-01-30T03:38:58;97637.63;;;0.11;79.82
31357;BME280;60001;48.404;11.738;2024-01-30T03:40:29;97660.44;;;0.25;80.15
31357;BME280;60001;48.404;11.738;2024-01-30T03:42:01;97661.16;;;0.35;79.30
31357;BME280;60001;48.404;11.738;2024-01-30T03:43:31;97661.97;;;0.36;79.69
31357;BME280;60001;48.404;11.738;2024-01-30T03:45:04;97662.09;;;0.34;79.23
31357;BME280;60001;48.404;11.738;2024-01-30T03:46:35;97661.16;;;0.35;79.41
31357;BME280;60001;48.404;11.738;2024-01-30T03:48:07;97662.25;;;0.33;78.77
31357;BME280;60001;48.404;11.738;2024-01-30T03:49:38;97663.56;;;0.29;79.08
31357;BME280;60001;48.404;11.738;2024-01-30T03:51:10;97652.84;;;0.32;79.32
31357;BME280;60001;48.404;11.738;2024-01-30T03:52:44;97655.59;;;0.30;78.81
31357;BME280;60001;48.404;11.738;2024-01-30T03:54:18;97653.81;;;0.31;79.09
31357;BME280;60001;48.404;11.738;2024-01-30T03:55:48;97656.22;;;0.24;79.78
31357;BME280;60001;48.404;11.738;2024-01-30T03:57:20;97653.94;;;0.21;79.41
31357;BME280;60001;48.404;11.738;2024-01-30T03:58:52;97653.50;;;0.34;79.17
31357;BME280;60001;48.404;11.738;2024-01-30T04:00:24;97651.59;;;0.36;79.75
31357;BME280;60001;48.404;11.738;2024-01-30T04:01:55;97651.72;;;0.34;78.83
31357;BME280;60001;48.404;11.738;2024-01-30T04:03:27;97648.78;;;0.29;78.85
31357;BME280;60001;48.404;11.738;2024-01-30T04:04:57;97644.03;;;0.24;78.69
31357;BME280;60001;48.404;11.738;2024-01-30T04:06:29;97649.38;;;0.23;78.58
31357;BME280;60001;48.404;11.738;2024-01-30T04:08:00;97649.13;;;0.08;78.94
31357;BME280;60001;48.404;11.738;2024-01-30T04:09:33;97647.63;;;0.06;78.78
31357;BME280;60001;48.404;11.738;2024-01-30T04:11:05;97644.84;;;-0.01;79.95
31357;BME280;60001;48.404;11.738;2024-01-30T04:12:37;97655.75;;;0.03;80.69
31357;BME280;60001;48.404;11.738;2024-01-30T04:14:08;97646.19;;;0.03;79.87
31357;BME280;60001;48.404;11.738;2024-01-30T04:15:40;97646.50;;;0.00;79.93
31357;BME280;60001;48.404;11.738;2024-01-30T04:17:10;97643.38;;;-0.04;79.93
31357;BME280;60001;48.404;11.738;2024-01-30T04:18:42;97641.75;;;-0.05;79.79
31357;BME280;60001;48.404;11.738;2024-01-30T04:20:14;97637.53;;;-0.06;80.38
31357;BME280;60001;48.404;11.738;2024-01-30T04:21:46;97644.41;;;-0.14;79.49
31357;BME280;60001;48.404;11.738;2024-01-30T04:23:17;97642.50;;;-0.12;80.88
31357;BME280;60001;48.404;11.738;2024-01-30T04:24:50;97643.97;;;-0.10;79.66
31357;BME280;60001;48.404;11.738;2024-01-30T04:26:21;97650.34;;;-0.04;80.00
31357;BME280;60001;48.404;11.738;2024-01-30T04:27:54;97654.06;;;-0.07;79.66
31357;BME280;60001;48.404;11.738;2024-01-30T04:29:24;97647.59;;;-0.03;79.65
31357;BME280;60001;48.404;11.738;2024-01-30T04:30:56;97648.41;;;-0.02;80.20
31357;BME280;60001;48.404;11.738;2024-01-30T04:32:27;97658.72;;;-0.10;78.87
31357;BME280;60001;48.404;11.738;2024-01-30T04:33:59;97646.13;;;-0.23;79.64
31357;BME280;60001;48.404;11.738;2024-01-30T04:35:30;97648.31;;;-0.36;80.59
31357;BME280;60001;48.404;11.738;2024-01-30T04:37:02;97656.25;;;-0.20;80.54
31357;BME280;60001;48.404;11.738;2024-01-30T04:38:34;97662.47;;;-0.13;80.19
31357;BME280;60001;48.404;11.738;2024-01-30T04:40:07;97659.19;;;-0.15;80.08
31357;BME280;60001;48.404;11.738;2024-01-30T04:41:40;97652.06;;;-0.13;80.16
31357;BME280;60001;48.404;11.738;2024-01-30T04:43:10;97657.06;;;-0.19;80.08
31357;BME280;60001;48.404;11.738;2024-01-30T04:44:42;97653.13;;;-0.23;80.16
31357;BME280;60001;48.404;11.738;2024-01-30T04:46:13;97658.63;;;-0.26;80.07
31357;BME280;60001;48.404;11.738;2024-01-30T04:47:45;97660.69;;;-0.30;79.71
31357;BME280;60001;48.404;11.738;2024-01-30T04:49:16;97661.59;;;-0.39;79.92
31357;BME280;60001;48.404;11.738;2024-01-30T04:50:48;97665.50;;;-0.35;80.87
31357;BME280;60001;48.404;11.738;2024-01-30T04:52:19;97660.19;;;-0.34;80.78
31357;BME280;60001;48.404;11.738;2024-01-30T04:53:51;97657.44;;;-0.32;80.24
31357;BME280;60001;48.404;11.738;2024-01-30T04:55:23;97661.28;;;-0.36;80.26
31357;BME280;60001;48.404;11.738;2024-01-30T04:56:55;97649.06;;;-0.44;80.55
31357;BME280;60001;48.404;11.738;2024-01-30T04:58:25;97666.34;;;-0.35;80.81
31357;BME280;60001;48.404;11.738;2024-01-30T04:59:57;97664.34;;;-0.41;80.98
31357;BME280;60001;48.404;11.738;2024-01-30T05:01:29;97664.63;;;-0.44;81.32
31357;BME280;60001;48.404;11.738;2024-01-30T05:03:01;97663.97;;;-0.46;81.57
31357;BME280;60001;48.404;11.738;2024-01-30T05:04:32;97665.44;;;-0.43;81.03
31357;BME280;60001;48.404;11.738;2024-01-30T05:06:04;97669.53;;;-0.41;81.90
31357;BME280;60001;48.404;11.738;2024-01-30T05:07:35;97653.88;;;-0.49;80.59
31357;BME280;60001;48.404;11.738;2024-01-30T05:09:06;97669.75;;;-0.34;81.46
31357;BME280;60001;48.404;11.738;2024-01-30T05:10:39;97670.91;;;-0.29;80.92
31357;BME280;60001;48.404;11.738;2024-01-30T05:12:11;97670.56;;;-0.34;81.59
31357;BME280;60001;48.404;11.738;2024-01-30T05:13:42;97675.97;;;-0.27;80.26
31357;BME280;60001;48.404;11.738;2024-01-30T05:15:14;97670.09;;;-0.29;80.46
31357;BME280;60001;48.404;11.738;2024-01-30T05:16:46;97673.97;;;-0.33;80.87
31357;BME280;60001;48.404;11.738;2024-01-30T05:18:18;97676.56;;;-0.33;80.34
31357;BME280;60001;48.404;11.738;2024-01-30T05:19:49;97674.78;;;-0.50;80.51
31357;BME280;60001;48.404;11.738;2024-01-30T05:21:20;97672.50;;;-0.53;80.85
31357;BME280;60001;48.404;11.738;2024-01-30T05:22:52;97668.41;;;-0.56;81.41
31357;BME280;60001;48.404;11.738;2024-01-30T05:24:23;97674.84;;;-0.60;81.84
31357;BME280;60001;48.404;11.738;2024-01-30T05:25:56;97666.34;;;-0.52;81.95
31357;BME280;60001;48.404;11.738;2024-01-30T05:27:27;97659.94;;;-0.58;81.60
31357;BME280;60001;48.404;11.738;2024-01-30T05:28:59;97665.09;;;-0.48;81.74
31357;BME280;60001;48.404;11.738;2024-01-30T05:30:30;97664.03;;;-0.38;81.22
31357;BME280;60001;48.404;11.738;2024-01-30T05:32:03;97661.75;;;-0.41;81.25
31357;BME280;60001;48.404;11.738;2024-01-30T05:33:33;97674.03;;;-0.43;81.68
31357;BME280;60001;48.404;11.738;2024-01-30T05:35:06;97660.25;;;-0.43;81.88
31357;BME280;60001;48.404;11.738;2024-01-30T05:36:38;97665.22;;;-0.50;81.05
31357;BME280;60001;48.404;11.738;2024-01-30T05:38:11;97666.91;;;-0.59;81.66
31357;BME280;60001;48.404;11.738;2024-01-30T05:39:43;97669.59;;;-0.50;81.50
31357;BME280;60001;48.404;11.738;2024-01-30T05:41:16;97665.53;;;-0.53;82.19
31357;BME280;60001;48.404;11.738;2024-01-30T05:42:47;97671.28;;;-0.59;82.48
31357;BME280;60001;48.404;11.738;2024-01-30T05:44:19;97674.84;;;-0.60;81.64
31357;BME280;60001;48.404;11.738;2024-01-30T05:45:51;97680.94;;;-0.69;82.09
31357;BME280;60001;48.404;11.738;2024-01-30T05:47:23;97674.56;;;-0.57;82.39
31357;BME280;60001;48.404;11.738;2024-01-30T05:48:53;97673.47;;;-0.54;82.22
31357;BME280;60001;48.404;11.738;2024-01-30T05:50:25;97676.19;;;-0.56;81.38
31357;BME280;60001;48.404;11.738;2024-01-30T05:51:57;97680.31;;;-0.63;81.49
31357;BME280;60001;48.404;11.738;2024-01-30T05:53:29;97675.13;;;-0.63;81.96
31357;BME280;60001;48.404;11.738;2024-01-30T05:55:00;97674.44;;;-0.56;81.57
31357;BME280;60001;48.404;11.738;2024-01-30T05:56:34;97679.47;;;-0.54;81.85
31357;BME280;60001;48.404;11.738;2024-01-30T05:58:05;97681.09;;;-0.53;81.01
31357;BME280;60001;48.404;11.738;2024-01-30T05:59:36;97670.72;;;-0.53;80.76
31357;BME280;60001;48.404;11.738;2024-01-30T06:01:07;97672.03;;;-0.49;81.81
31357;BME280;60001;48.404;11.738;2024-01-30T06:02:39;97678.94;;;-0.40;81.27
31357;BME280;60001;48.404;11.738;2024-01-30T06:04:10;97674.19;;;-0.44;81.54
31357;BME280;60001;48.404;11.738;2024-01-30T06:05:42;97672.03;;;-0.49;81.12
31357;BME280;60001;48.404;11.738;2024-01-30T06:07:13;97682.50;;;-0.59;80.88
31357;BME280;60001;48.404;11.738;2024-01-30T06:08:45;97675.38;;;-0.57;81.74
31357;BME280;60001;48.404;11.738;2024-01-30T06:10:16;97670.06;;;-0.55;81.92
31357;BME280;60001;48.404;11.738;2024-01-30T06:11:49;97677.44;;;-0.42;80.70
31357;BME280;60001;48.404;11.738;2024-01-30T06:13:20;97681.00;;;-0.25;81.01
31357;BME280;60001;48.404;11.738;2024-01-30T06:14:52;97677.75;;;-0.28;80.39
31357;BME280;60001;48.404;11.738;2024-01-30T06:16:24;97682.19;;;-0.38;80.08
31357;BME280;60001;48.404;11.738;2024-01-30T06:17:59;97680.66;;;-0.48;80.47
31357;BME280;60001;48.404;11.738;2024-01-30T06:19:30;97674.94;;;-0.52;79.84
31357;BME280;60001;48.404;11.738;2024-01-30T06:21:04;97686.19;;;-0.61;81.07
31357;BME280;60001;48.404;11.738;2024-01-30T06:22:35;97691.75;;;-0.56;81.53
31357;BME280;60001;48.404;11.738;2024-01-30T06:24:07;97692.78;;;-0.49;80.35
31357;BME280;60001;48.404;11.738;2024-01-30T06:25:37;97691.91;;;-0.40;81.37
31357;BME280;60001;48.404;11.738;2024-01-30T06:27:11;97691.59;;;-0.37;80.11
31357;BME280;60001;48.404;11.738;2024-01-30T06:28:42;97686.63;;;-0.30;80.60
31357;BME280;60001;48.404;11.738;2024-01-30T06:30:15;97693.19;;;-0.26;79.34
31357;BME280;60001;48.404;11.738;2024-01-30T06:31:46;97691.16;;;-0.32;80.16
31357;BME280;60001;48.404;11.738;2024-01-30T06:33:18;97692.88;;;-0.41;79.21
31357;BME280;60001;48.404;11.738;2024-01-30T06:34:48;97697.38;;;-0.43;79.78
31357;BME280;60001;48.404;11.738;2024-01-30T06:36:20;97704.81;;;-0.48;79.31
31357;BME280;60001;48.404;11.738;2024-01-30T06:37:51;97703.84;;;-0.47;79.89
31357;BME280;60001;48.404;11.738;2024-01-30T06:39:23;97707.84;;;-0.52;80.72
31357;BME280;60001;48.404;11.738;2024-01-30T06:40:54;97708.03;;;-0.64;81.26
31357;BME280;60001;48.404;11.738;2024-01-30T06:42:27;97712.88;;;-0.69;81.00
31357;BME280;60001;48.404;11.738;2024-01-30T06:43:58;97714.84;;;-0.63;80.92
31357;BME280;60001;48.404;11.738;2024-01-30T06:45:29;97719.03;;;-0.52;80.76
31357;BME280;60001;48.404;11.738;2024-01-30T06:47:00;97720.44;;;-0.58;80.88
31357;BME280;60001;48.404;11.738;2024-01-30T06:48:32;97719.03;;;-0.52;81.50
31357;BME280;60001;48.404;11.738;2024-01-30T06:50:03;97722.59;;;-0.53;80.84
31357;BME280;60001;48.404;11.738;2024-01-30T06:51:35;97725.47;;;-0.56;80.84
31357;BME280;60001;48.404;11.738;2024-01-30T06:53:06;97709.41;;;-0.60;80.29
31357;BME280;60001;48.404;11.738;2024-01-30T06:54:38;97728.22;;;-0.58;80.72
31357;BME280;60001;48.404;11.738;2024-01-30T06:56:10;97720.03;;;-0.63;81.97
31357;BME280;60001;48.404;11.738;2024-01-30T06:57:43;97727.56;;;-0.60;82.01
31357;BME280;60001;48.404;11.738;2024-01-30T06:59:14;97723.47;;;-0.62;81.66
31357;BME280;60001;48.404;11.738;2024-01-30T07:00:46;97730.34;;;-0.71;82.98
31357;BME280;60001;48.404;11.738;2024-01-30T07:02:16;97721.47;;;-0.68;82.90
31357;BME280;60001;48.404;11.738;2024-01-30T07:03:48;97721.31;;;-0.67;82.49
31357;BME280;60001;48.404;11.738;2024-01-30T07:05:19;97728.69;;;-0.62;83.62
31357;BME280;60001;48.404;11.738;2024-01-30T07:06:52;97731.34;;;-0.54;83.53
31357;BME280;60001;48.404;11.738;2024-01-30T07:08:23;97724.38;;;-0.53;83.48
31357;BME280;60001;48.404;11.738;2024-01-30T07:09:55;97724.66;;;-0.57;84.08
31357;BME280;60001;48.404;11.738;2024-01-30T07:11:27;97724.38;;;-0.53;83.29
31357;BME280;60001;48.404;11.738;2024-01-30T07:13:02;97720.28;;;-0.56;83.36
31357;BME280;60001;48.404;11.738;2024-01-30T07:14:34;97720.47;;;-0.40;83.34
31357;BME280;60001;48.404;11.738;2024-01-30T07:16:09;97725.41;;;-0.29;83.02
31357;BME280;60001;48.404;11.738;2024-01-30T07:17:40;97722.53;;;-0.25;83.25
31357;BME280;60001;48.404;11.738;2024-01-30T07:19:12;97723.78;;;-0.30;84.00
31357;BME280;60001;48.404;11.738;2024-01-30T07:20:43;97728.47;;;-0.33;83.59
31357;BME280;60001;48.404;11.738;2024-01-30T07:22:16;97719.41;;;-0.29;84.19
31357;BME280;60001;48.404;11.738;2024-01-30T07:23:48;97723.50;;;-0.26;84.07
31357;BME280;60001;48.404;11.738;2024-01-30T07:25:19;97723.19;;;-0.23;83.74
31357;BME280;60001;48.404;11.738;2024-01-30T07:26:52;97716.75;;;-0.19;83.83
31357;BME280;60001;48.404;11.738;2024-01-30T07:28:24;97717.41;;;-0.17;84.54
31357;BME280;60001;48.404;11.738;2024-01-30T07:29:56;97722.59;;;-0.17;83.88
31357;BME280;60001;48.404;11.738;2024-01-30T07:31:27;97722.97;;;-0.12;83.86
31357;BME280;60001;48.404;11.738;2024-01-30T07:33:00;97725.28;;;-0.09;84.83
31357;BME280;60001;48.404;11.738;2024-01-30T07:34:30;97725.28;;;-0.09;84.43
31357;BME280;60001;48.404;11.738;2024-01-30T07:36:02;97725.66;;;-0.04;84.27
31357;BME280;60001;48.404;11.738;2024-01-30T07:37:33;97728.00;;;0.07;84.47
31357;BME280;60001;48.404;11.738;2024-01-30T07:39:05;97730.69;;;0.15;83.65
31357;BME280;60001;48.404;11.738;2024-01-30T07:40:36;97725.53;;;0.23;83.62
31357;BME280;60001;48.404;11.738;2024-01-30T07:42:08;97722.00;;;0.33;83.90
31357;BME280;60001;48.404;11.738;2024-01-30T07:43:42;97731.66;;;0.40;83.43
31357;BME280;60001;48.404;11.738;2024-01-30T07:45:14;97726.81;;;0.45;83.60
31357;BME280;60001;48.404;11.738;2024-01-30T07:46:45;97731.09;;;0.54;84.06
31357;BME280;60001;48.404;11.738;2024-01-30T07:48:17;97733.22;;;0.59;83.58
31357;BME280;60001;48.404;11.738;2024-01-30T07:49:48;97733.19;;;0.77;83.25
31357;BME280;60001;48.404;11.738;2024-01-30T07:51:19;97738.75;;;0.90;82.48
31357;BME280;60001;48.404;11.738;2024-01-30T07:52:50;97740.28;;;1.01;82.92
31357;BME280;60001;48.404;11.738;2024-01-30T07:54:25;97738.81;;;0.98;82.27
31357;BME280;60001;48.404;11.738;2024-01-30T07:55:56;97741.63;;;1.05;83.08
31357;BME280;60001;48.404;11.738;2024-01-30T07:57:27;97739.66;;;1.07;83.06
31357;BME280;60001;48.404;11.738;2024-01-30T07:58:59;97741.63;;;1.13;82.44
31357;BME280;60001;48.404;11.738;2024-01-30T08:00:31;97737.44;;;1.20;82.30
31357;BME280;60001;48.404;11.738;2024-01-30T08:02:02;97748.69;;;1.29;81.14
31357;BME280;60001;48.404;11.738;2024-01-30T08:03:34;97749.84;;;1.34;81.26